Terminal Aerodrome Forecast
Issued by NWS

Home | Current Version | Previous Version | Text Only | Print | Product List | Glossary On
Versions: 1 2 3 4 5 6 7 8 9 10 11 12 13
000
FTUS44 KSJT 301851 AAA
TAFJCT
TAF AMD
KJCT 301851Z 3019/3118 22006KT P6SM VCTS SCT060CB SCT100
     FM302300 14005KT P6SM FEW100=

USA.gov is the U.S. government's official web portal to all federal, state and local government web resources and services.